Terminal Aerodrome Forecast
Issued by NWS

Home | Current Version | Previous Version | Text Only | Print | Product List | Glossary On
Versions: 1 2 3 4 5 6 7 8 9 10 11 12 13 14 15 16 17 18
000
FTUS43 KPAH 192324
TAFCGI
TAF
KCGI 192324Z 2000/2024 27007KT P6SM SCT025 BKN100
     FM200200 26008KT P6SM VCSH OVC060
      TEMPO 2003/2007 2SM -TSRA BR BKN035CB
     FM200900 26009KT 4SM BR SCT025 OVC035
     FM201300 28013G23KT P6SM BKN050
     FM201800 28010G20KT P6SM SCT050=

USA.gov is the U.S. government's official web portal to all federal, state and local government web resources and services.